Time;durP1;ratioP1;P1;durP2;ratioP2;P2;SDS_P1;SDS_P2;PMS_P1;PMS_P2;Temp;Humidity;BMP_temperature;BMP_pressure;BME280_temperature;BME280_humidity;BME280_pressure;Samples;Min_cycle;Max_cycle;Signal;HPM_P1;HPM_P2
2022/12/05 00:01:19;;;;;;;9.57;8.63;;;16.10;58.80;17.10;100736.00;;;;5068566;28;20803;-42
2022/12/05 00:03:46;;;;;;;9.37;8.47;;;16.00;58.70;17.10;100740.00;;;;5068491;28;20169;-41
2022/12/05 00:06:12;;;;;;;10.50;8.87;;;16.00;58.80;17.10;100743.00;;;;5067203;28;20175;-42
2022/12/05 00:08:38;;;;;;;9.50;8.60;;;16.00;58.90;17.10;100743.00;;;;5070063;28;20218;-41
2022/12/05 00:11:03;;;;;;;9.00;8.10;;;15.90;58.90;17.00;100747.00;;;;5069828;28;20674;-42
2022/12/05 00:13:29;;;;;;;11.20;8.80;;;15.90;58.90;17.00;100745.00;;;;5073842;28;20545;-42
2022/12/05 00:15:55;;;;;;;9.40;8.17;;;15.90;59.00;17.00;100737.00;;;;5068418;28;20678;-42
2022/12/05 00:18:20;;;;;;;9.53;8.57;;;15.90;59.00;17.00;100700.00;;;;5068343;28;20206;-43
2022/12/05 00:20:47;;;;;;;9.87;8.87;;;15.90;59.00;17.00;100756.00;;;;5068427;28;20172;-42
2022/12/05 00:23:13;;;;;;;9.80;7.90;;;15.90;59.10;16.90;100747.00;;;;5068157;28;20685;-40
2022/12/05 00:25:39;;;;;;;9.57;8.57;;;15.80;59.00;16.90;100754.00;;;;5068112;28;20197;-41
2022/12/05 00:28:04;;;;;;;9.60;8.60;;;15.80;59.20;16.90;100752.00;;;;5067880;28;20190;-42
2022/12/05 00:30:31;;;;;;;8.83;8.03;;;15.80;59.20;16.90;100750.00;;;;5068441;28;20273;-41
2022/12/05 00:32:57;;;;;;;9.33;8.43;;;15.70;59.20;16.90;100758.00;;;;5067740;28;20253;-41
2022/12/05 00:35:23;;;;;;;9.03;8.23;;;15.70;59.30;16.90;100757.00;;;;5067911;28;20250;-42
2022/12/05 00:37:49;;;;;;;8.57;7.77;;;15.80;59.30;16.90;100758.00;;;;5067548;28;20209;-40
2022/12/05 00:40:14;;;;;;;9.10;8.20;;;15.70;59.50;16.90;100758.00;;;;5067779;28;20174;-41
2022/12/05 00:42:40;;;;;;;9.23;8.33;;;15.70;59.40;16.90;100769.00;;;;5068437;28;20178;-42
2022/12/05 00:45:07;;;;;;;9.13;8.13;;;15.70;59.50;16.80;100757.00;;;;5071909;28;20169;-41
2022/12/05 00:47:35;;;;;;;8.90;8.00;;;15.70;59.50;16.80;100747.00;;;;5053335;28;20271;-42
2022/12/05 00:50:03;;;;;;;8.70;7.90;;;15.60;59.40;16.80;100745.00;;;;5071339;28;20799;-42
2022/12/05 00:52:29;;;;;;;8.87;7.90;;;15.60;59.50;16.80;100752.00;;;;5071268;28;20200;-42
2022/12/05 00:54:54;;;;;;;8.10;7.30;;;15.60;59.60;16.80;100749.00;;;;5071494;28;20174;-42
2022/12/05 00:57:21;;;;;;;8.67;7.67;;;15.60;59.70;16.80;100733.00;;;;5071199;28;20217;-41
2022/12/05 00:59:46;;;;;;;8.83;7.93;;;15.60;59.70;16.80;100742.00;;;;5053672;28;20227;-43
2022/12/05 01:02:12;;;;;;;8.43;7.63;;;15.60;59.70;16.80;100726.00;;;;5071479;28;20185;-43
2022/12/05 01:04:38;;;;;;;8.40;7.60;;;15.60;59.70;16.70;100753.00;;;;5071842;28;20573;-41
2022/12/05 01:07:04;;;;;;;8.90;7.97;;;15.60;59.70;16.70;100738.00;;;;5071588;28;20198;-41
2022/12/05 01:09:29;;;;;;;8.30;7.50;;;15.50;59.70;16.70;100747.00;;;;5053988;28;20201;-42
2022/12/05 01:11:55;;;;;;;8.30;7.50;;;15.50;59.80;16.70;100752.00;;;;5071017;28;20228;-42
2022/12/05 01:14:23;;;;;;;7.97;7.17;;;15.50;59.80;16.70;100749.00;;;;5071244;28;20280;-42
2022/12/05 01:16:50;;;;;;;8.23;7.43;;;15.50;59.80;16.70;100739.00;;;;5053347;28;20560;-43
2022/12/05 01:19:28;;;;;;;8.40;7.63;;;15.50;59.80;16.70;100754.00;;;;5071054;28;20182;-42
2022/12/05 01:21:54;;;;;;;7.83;7.03;;;15.50;59.80;16.70;100753.00;;;;5070734;28;20167;-42
2022/12/05 01:24:20;;;;;;;8.17;7.37;;;15.50;59.90;16.60;100757.00;;;;5070616;28;20618;-42
2022/12/05 01:26:46;;;;;;;8.13;7.33;;;15.50;59.90;16.40;100760.00;;;;5070786;28;20788;-42
2022/12/05 01:29:13;;;;;;;8.23;7.43;;;15.50;59.80;16.60;100769.00;;;;5053088;28;20177;-43
2022/12/05 01:31:39;;;;;;;8.57;7.77;;;15.50;59.90;16.60;100760.00;;;;5070672;28;20185;-40
2022/12/05 01:34:08;;;;;;;7.63;6.93;;;15.50;59.90;16.60;100757.00;;;;5070723;28;20186;-41
2022/12/05 01:36:34;;;;;;;8.17;7.37;;;15.40;59.80;16.60;100754.00;;;;5070771;28;20235;-42
2022/12/05 01:39:00;;;;;;;8.23;7.50;;;15.40;59.90;16.60;100753.00;;;;5036350;28;20170;-42
2022/12/05 01:41:31;;;;;;;8.20;7.40;;;15.40;59.90;16.60;100771.00;;;;5072006;28;20174;-42
2022/12/05 01:44:01;;;;;;;7.87;7.17;;;15.40;60.00;16.50;100759.00;;;;5073977;28;20646;-41
2022/12/05 01:46:32;;;;;;;7.73;6.93;;;15.40;60.00;16.50;100758.00;;;;5053275;28;20165;-43
2022/12/05 01:49:12;;;;;;;8.13;7.43;;;15.30;60.00;16.50;100766.00;;;;5070268;28;20189;-42
2022/12/05 01:51:41;;;;;;;7.67;6.97;;;15.30;60.00;16.50;100767.00;;;;5052562;28;20173;-41
2022/12/05 01:54:07;;;;;;;8.00;7.20;;;15.30;60.10;16.50;100768.00;;;;5069927;28;20177;-42
2022/12/05 01:56:33;;;;;;;7.93;7.13;;;15.30;60.00;16.50;100759.00;;;;5035664;28;20635;-41
2022/12/05 01:59:00;;;;;;;7.37;6.70;;;15.30;60.10;16.50;100771.00;;;;5036114;28;20169;-41
2022/12/05 02:01:26;;;;;;;7.50;6.90;;;15.30;60.10;16.40;100783.00;;;;5035699;28;20205;-41
2022/12/05 02:03:54;;;;;;;7.57;6.87;;;15.30;60.00;16.40;100782.00;;;;5070364;28;20174;-42
2022/12/05 02:06:20;;;;;;;7.70;7.00;;;15.30;60.10;16.40;100777.00;;;;5019817;28;20218;-42
2022/12/05 02:08:46;;;;;;;7.77;7.07;;;15.20;60.00;16.40;100770.00;;;;5052355;28;20347;-42
2022/12/05 02:11:12;;;;;;;7.50;6.80;;;15.20;59.90;16.40;100767.00;;;;5052262;28;20170;-41
2022/12/05 02:14:26;;;;;;;7.27;6.67;;;15.20;60.10;16.40;100765.00;;;;5035764;28;20180;-42
2022/12/05 02:17:27;;;;;;;7.53;6.83;;;15.20;60.30;16.40;100772.00;;;;5035325;28;20249;-42
2022/12/05 02:20:47;;;;;;;7.70;7.00;;;15.20;60.30;16.30;100771.00;;;;5039337;28;20271;-42
2022/12/05 02:23:49;;;;;;;7.83;7.13;;;15.20;60.30;16.30;100775.00;;;;5045730;28;20204;-42
2022/12/05 02:26:32;;;;;;;7.90;7.20;;;15.10;60.30;16.30;100773.00;;;;5069561;28;20180;-43
2022/12/05 02:29:37;;;;;;;7.73;7.03;;;15.10;60.30;16.30;100770.00;;;;5021233;28;20178;-41
2022/12/05 02:32:15;;;;;;;7.53;6.77;;;15.10;60.50;16.20;100769.00;;;;5069520;28;20253;-41
2022/12/05 02:35:18;;;;;;;7.10;6.40;;;15.10;60.60;16.20;100763.00;;;;5020716;28;20237;-42
2022/12/05 02:37:49;;;;;;;7.30;6.60;;;15.10;60.50;16.20;100756.00;;;;5048606;28;20221;-41
2022/12/05 02:40:38;;;;;;;8.00;7.20;;;15.10;60.40;16.20;100775.00;;;;5069487;28;20731;-41
2022/12/05 02:43:18;;;;;;;7.40;6.67;;;15.00;60.50;16.20;100769.00;;;;5035469;28;20264;-42
2022/12/05 02:45:43;;;;;;;7.60;6.93;;;15.00;60.60;16.10;100769.00;;;;5026922;28;20627;-42
2022/12/05 02:48:10;;;;;;;7.40;6.70;;;15.00;60.60;15.90;100780.00;;;;5026862;28;20258;-41
2022/12/05 02:50:36;;;;;;;7.73;7.03;;;15.00;60.60;16.20;100767.00;;;;5027192;28;20173;-42
2022/12/05 02:53:06;;;;;;;7.23;6.57;;;15.00;60.50;16.20;100767.00;;;;5040717;28;20178;-41
2022/12/05 02:55:32;;;;;;;7.30;6.70;;;15.00;60.50;16.20;100773.00;;;;5053018;28;20303;-41
2022/12/05 02:58:02;;;;;;;7.57;6.87;;;14.90;61.20;16.20;100761.00;;;;5070083;28;20284;-41
2022/12/05 03:00:28;;;;;;;7.40;6.70;;;15.00;60.50;16.20;100774.00;;;;5036266;28;20151;-41
2022/12/05 03:02:56;;;;;;;7.20;6.53;;;14.90;60.30;16.10;100790.00;;;;5069718;28;20546;-41
2022/12/05 03:05:41;;;;;;;7.47;6.77;;;15.00;60.60;16.10;100778.00;;;;5052225;28;20158;-41
2022/12/05 03:08:11;;;;;;;7.37;6.70;;;14.90;60.40;16.10;100783.00;;;;5036611;28;20193;-40
2022/12/05 03:10:37;;;;;;;7.10;6.40;;;14.90;60.40;16.10;100775.00;;;;5036406;28;20162;-40
2022/12/05 03:13:11;;;;;;;7.20;6.50;;;14.90;60.40;16.10;100795.00;;;;5035653;28;20166;-40
2022/12/05 03:15:40;;;;;;;7.03;6.43;;;14.90;60.50;16.10;100794.00;;;;5039441;28;20183;-40
2022/12/05 03:18:20;;;;;;;6.97;6.37;;;14.90;60.50;16.10;100796.00;;;;5052670;28;20228;-41
2022/12/05 03:21:31;;;;;;;7.10;6.50;;;14.90;60.50;16.10;100797.00;;;;5054063;28;20196;-41
2022/12/05 03:24:02;;;;;;;6.57;5.97;;;14.90;60.50;16.00;100791.00;;;;5069316;28;20187;-42
2022/12/05 03:26:55;;;;;;;7.13;6.40;;;14.90;60.40;16.00;100796.00;;;;5052490;28;20146;-41
2022/12/05 03:30:09;;;;;;;7.13;6.53;;;14.90;61.30;16.00;100799.00;;;;5070076;28;20158;-41
2022/12/05 03:32:56;;;;;;;7.40;6.70;;;14.90;60.90;16.00;100793.00;;;;5051758;28;20177;-42
2022/12/05 03:35:37;;;;;;;7.70;7.00;;;14.80;60.70;15.90;100789.00;;;;5069978;28;20199;-42
2022/12/05 03:38:15;;;;;;;7.10;6.40;;;14.80;60.60;15.90;100795.00;;;;5037645;28;20198;-41
2022/12/05 03:41:12;;;;;;;7.73;6.93;;;14.80;60.50;15.90;100793.00;;;;5052221;28;20150;-42
2022/12/05 03:43:56;;;;;;;8.33;6.73;;;14.80;60.30;15.90;100797.00;;;;5037900;28;20153;-41
2022/12/05 03:46:51;;;;;;;7.90;7.10;;;14.80;60.10;15.90;100788.00;;;;5053017;28;20162;-42
2022/12/05 03:49:58;;;;;;;8.87;8.00;;;14.80;60.10;15.90;100797.00;;;;5051751;28;20299;-41
2022/12/05 03:52:30;;;;;;;13.03;7.80;;;14.80;59.90;15.80;100787.00;;;;5007303;28;20183;-41
2022/12/05 03:55:02;;;;;;;11.53;8.03;;;14.80;59.90;15.80;100793.00;;;;4975369;28;20566;-41
2022/12/05 03:57:35;;;;;;;8.60;7.80;;;14.70;59.80;15.80;100794.00;;;;5026121;28;20833;-43
2022/12/05 04:00:20;;;;;;;8.70;7.90;;;14.70;59.70;15.80;100779.00;;;;5035693;28;20271;-43
2022/12/05 04:02:48;;;;;;;10.23;7.93;;;14.70;59.50;15.80;100797.00;;;;5038482;28;20565;-41
2022/12/05 04:05:24;;;;;;;9.33;8.23;;;14.70;59.50;15.80;100787.00;;;;5069777;28;20174;-42
2022/12/05 04:08:03;;;;;;;9.27;8.37;;;14.70;59.40;15.80;100797.00;;;;5052668;28;20189;-42
2022/12/05 04:10:47;;;;;;;8.90;8.00;;;14.70;59.40;15.80;100799.00;;;;5052509;28;20227;-42
2022/12/05 04:13:28;;;;;;;8.67;7.87;;;14.70;59.30;15.70;100797.00;;;;5054373;28;20158;-41
2022/12/05 04:18:49;;;;;;;9.83;8.20;;;14.70;59.40;15.70;100796.00;;;;5043405;28;20280;-42
2022/12/05 04:26:46;;;;;;;9.30;8.40;;;14.60;59.30;15.70;100813.00;;;;5058124;28;20196;-43
2022/12/05 04:29:22;;;;;;;9.20;8.40;;;14.60;59.30;15.70;100796.00;;;;5039585;28;20204;-41
2022/12/05 04:31:50;;;;;;;9.60;8.70;;;14.60;59.50;15.70;100816.00;;;;5038843;28;20192;-42
2022/12/05 04:34:16;;;;;;;8.73;7.90;;;14.60;59.70;15.70;100817.00;;;;5038936;28;20174;-41
2022/12/05 04:37:06;;;;;;;9.67;8.77;;;14.60;59.80;15.60;100820.00;;;;5038938;28;20205;-41
2022/12/05 04:39:48;;;;;;;9.63;8.63;;;14.60;59.80;15.60;100792.00;;;;5029291;28;20598;-41
2022/12/05 04:42:17;;;;;;;9.03;8.13;;;14.50;59.80;15.60;100821.00;;;;5055307;28;20169;-41
2022/12/05 04:44:51;;;;;;;9.43;8.50;;;14.60;59.80;15.60;100823.00;;;;5039072;28;20791;-42
2022/12/05 04:47:18;;;;;;;10.30;8.73;;;14.50;59.70;15.60;100803.00;;;;5055139;28;20685;-40
2022/12/05 04:49:44;;;;;;;9.47;8.37;;;14.50;59.80;15.60;100812.00;;;;5039407;28;20177;-41
2022/12/05 04:52:10;;;;;;;14.40;8.73;;;14.50;59.90;15.60;100806.00;;;;5042557;28;20638;-40
2022/12/05 04:54:51;;;;;;;14.30;9.00;;;14.40;60.00;15.60;100816.00;;;;5038918;28;20173;-41
2022/12/05 04:57:30;;;;;;;11.70;8.20;;;14.40;59.90;15.60;100827.00;;;;5055190;28;20220;-41
2022/12/05 04:59:55;;;;;;;10.83;8.30;;;14.40;59.70;15.60;100822.00;;;;5055153;28;20177;-40
2022/12/05 05:02:28;;;;;;;11.40;8.67;;;14.40;59.60;15.50;100824.00;;;;5072771;28;20172;-41
2022/12/05 05:04:54;;;;;;;16.57;8.47;;;14.40;59.40;15.50;100820.00;;;;5020440;28;20846;-41
2022/12/05 05:07:20;;;;;;;9.23;8.03;;;14.40;59.30;15.50;100818.00;;;;5005139;28;20312;-40
2022/12/05 05:09:46;;;;;;;12.60;8.07;;;14.40;59.20;15.50;100827.00;;;;5054640;28;20681;-40
2022/12/05 05:12:12;;;;;;;13.07;8.20;;;14.40;59.20;15.50;100818.00;;;;5071725;28;20162;-41
2022/12/05 05:14:38;;;;;;;9.47;8.43;;;14.40;59.20;15.50;100831.00;;;;5071945;28;20173;-41
2022/12/05 05:17:03;;;;;;;9.03;8.13;;;14.40;59.10;15.50;100837.00;;;;5071826;28;20213;-40
2022/12/05 05:19:29;;;;;;;9.10;8.10;;;14.40;59.10;15.50;100829.00;;;;5071919;28;20719;-41
2022/12/05 05:21:55;;;;;;;9.10;8.20;;;14.30;59.00;15.50;100834.00;;;;5071513;28;20153;-41
2022/12/05 05:24:22;;;;;;;10.20;8.50;;;14.40;59.00;15.50;100843.00;;;;5053961;28;20172;-41
2022/12/05 05:26:48;;;;;;;9.13;8.03;;;14.30;58.90;15.50;100845.00;;;;5072243;28;20203;-41
2022/12/05 05:29:13;;;;;;;9.03;8.13;;;14.30;58.90;15.50;100844.00;;;;5075201;28;20197;-40
2022/12/05 05:31:39;;;;;;;8.77;7.97;;;14.30;58.90;15.40;100848.00;;;;5053947;28;20170;-41
2022/12/05 05:34:05;;;;;;;10.97;8.50;;;14.30;58.80;15.40;100846.00;;;;5070581;28;20228;-41
2022/12/05 05:36:31;;;;;;;8.97;7.73;;;14.20;58.90;15.40;100836.00;;;;5071953;28;20201;-42
2022/12/05 05:38:59;;;;;;;9.57;8.67;;;14.20;58.90;15.40;100835.00;;;;5071491;28;20174;-41
2022/12/05 05:41:27;;;;;;;8.27;7.47;;;14.30;59.00;15.40;100835.00;;;;5071518;28;20173;-42
2022/12/05 05:43:53;;;;;;;8.83;8.00;;;14.20;58.90;15.40;100851.00;;;;5071717;28;20170;-40
2022/12/05 05:46:21;;;;;;;8.97;8.07;;;14.30;59.10;15.40;100851.00;;;;5071701;28;20180;-40
2022/12/05 05:48:47;;;;;;;7.77;7.07;;;14.30;59.00;15.40;100844.00;;;;5053928;28;20204;-40
2022/12/05 05:51:14;;;;;;;8.83;7.90;;;14.40;59.00;15.40;100851.00;;;;5071408;28;20717;-39
2022/12/05 05:53:40;;;;;;;9.50;7.80;;;14.50;58.80;15.50;100851.00;;;;5071136;28;20169;-40
2022/12/05 05:56:08;;;;;;;7.83;7.03;;;14.70;58.70;15.50;100827.00;;;;5037003;28;20186;-41
2022/12/05 05:58:34;;;;;;;8.03;7.23;;;14.80;58.80;15.60;100853.00;;;;5053775;28;20190;-41
2022/12/05 06:01:10;;;;;;;8.67;7.00;;;14.90;58.60;15.70;100860.00;;;;5071340;28;20201;-41
2022/12/05 06:03:35;;;;;;;9.03;6.80;;;15.10;58.60;15.70;100854.00;;;;5069564;28;20226;-40
2022/12/05 06:06:04;;;;;;;8.27;7.07;;;15.20;58.50;15.80;100855.00;;;;5071105;28;20232;-41
2022/12/05 06:08:35;;;;;;;7.90;7.17;;;15.20;58.30;15.90;100861.00;;;;5070980;28;20194;-42
2022/12/05 06:11:09;;;;;;;7.17;6.57;;;15.30;58.40;15.90;100852.00;;;;5070881;28;20616;-41
2022/12/05 06:13:35;;;;;;;8.63;6.80;;;15.40;58.40;16.00;100863.00;;;;5070750;28;20154;-40
2022/12/05 06:16:04;;;;;;;7.47;6.70;;;15.40;58.40;16.00;100863.00;;;;5070373;28;20185;-41
2022/12/05 06:18:30;;;;;;;9.97;6.83;;;15.40;58.50;16.00;100865.00;;;;5052906;28;20193;-41
2022/12/05 06:20:56;;;;;;;9.57;6.93;;;15.40;58.50;16.10;100864.00;;;;5070803;28;20251;-41
2022/12/05 06:23:23;;;;;;;9.57;7.07;;;15.50;58.70;16.10;100865.00;;;;5070842;28;20169;-41
2022/12/05 06:25:50;;;;;;;6.83;6.13;;;15.40;58.60;16.10;100785.00;;;;5072452;28;20181;-40
2022/12/05 06:28:16;;;;;;;9.13;6.57;;;15.40;58.70;16.10;100862.00;;;;5054120;28;20188;-41
2022/12/05 06:30:42;;;;;;;12.50;6.70;;;15.40;58.70;16.20;100864.00;;;;5070675;28;20165;-42
2022/12/05 06:33:08;;;;;;;8.00;6.20;;;15.50;58.80;16.20;100857.00;;;;5069949;28;20593;-41
2022/12/05 06:35:34;;;;;;;9.80;6.67;;;15.40;58.80;16.20;100868.00;;;;5070390;28;20245;-41
2022/12/05 06:37:59;;;;;;;9.30;6.13;;;15.50;58.90;16.20;100874.00;;;;5070462;28;20212;-42
2022/12/05 06:40:25;;;;;;;9.37;7.03;;;15.50;58.90;16.20;100875.00;;;;5071860;28;20227;-43
2022/12/05 06:42:51;;;;;;;11.40;6.83;;;15.50;58.90;16.20;100875.00;;;;5071053;28;20339;-41
2022/12/05 06:45:17;;;;;;;9.30;6.57;;;15.50;58.90;16.20;100885.00;;;;5069860;28;20573;-41
2022/12/05 06:47:43;;;;;;;8.43;6.43;;;15.50;58.90;16.20;100874.00;;;;5052331;28;20537;-40
2022/12/05 06:50:09;;;;;;;7.43;6.30;;;15.50;59.00;16.30;100877.00;;;;5070331;28;20220;-41
2022/12/05 06:52:34;;;;;;;8.47;6.30;;;15.50;59.00;16.30;100882.00;;;;5069615;28;20188;-41
2022/12/05 06:55:00;;;;;;;6.53;5.93;;;15.50;59.10;16.30;100883.00;;;;5069381;28;20174;-41
2022/12/05 06:57:29;;;;;;;8.30;6.03;;;15.50;59.10;16.30;100888.00;;;;5070004;28;20209;-41
2022/12/05 07:01:37;;;;;;;6.90;5.93;;;15.50;59.10;16.30;100894.00;;;;5069927;28;20165;-41
2022/12/05 07:02:40;;;;;;;7.33;6.07;;;15.60;59.10;16.30;100899.00;;;;5069277;28;20356;-43
2022/12/05 07:05:08;;;;;;;6.70;6.00;;;15.60;59.10;16.30;100888.00;;;;5052143;28;20162;-40
2022/12/05 07:07:33;;;;;;;8.37;6.20;;;15.60;59.00;16.30;100892.00;;;;5078081;28;20196;-41
2022/12/05 07:09:59;;;;;;;6.60;5.73;;;15.60;59.00;16.30;100896.00;;;;5078768;28;20173;-41
2022/12/05 07:12:25;;;;;;;6.67;6.07;;;15.60;59.00;16.30;100897.00;;;;5078431;28;20173;-42
2022/12/05 07:14:51;;;;;;;7.43;6.03;;;15.60;59.10;16.30;100902.00;;;;5052209;28;20169;-41
2022/12/05 07:17:18;;;;;;;6.83;5.90;;;15.60;59.10;16.30;100902.00;;;;5069248;28;20784;-42
2022/12/05 07:19:45;;;;;;;7.00;5.90;;;15.60;59.20;16.30;100903.00;;;;5069713;28;20272;-42
2022/12/05 07:22:11;;;;;;;6.87;6.20;;;15.60;59.20;16.30;100908.00;;;;5052245;28;20546;-41
2022/12/05 07:24:37;;;;;;;6.23;5.53;;;15.60;59.20;16.30;100905.00;;;;5069749;28;20170;-42
2022/12/05 07:27:02;;;;;;;5.77;5.13;;;15.60;59.10;16.40;100912.00;;;;5069588;28;20231;-42
2022/12/05 07:29:28;;;;;;;6.27;5.67;;;15.60;59.10;16.40;100909.00;;;;5051658;28;20232;-41
2022/12/05 07:31:54;;;;;;;6.50;5.90;;;15.60;59.10;16.40;100915.00;;;;5067737;28;20170;-42
2022/12/05 07:34:20;;;;;;;6.27;5.70;;;15.60;59.10;16.40;100914.00;;;;5069249;28;20169;-41
2022/12/05 07:36:45;;;;;;;6.40;5.90;;;15.60;59.20;16.40;100906.00;;;;5051908;28;20678;-41
2022/12/05 07:39:11;;;;;;;5.90;5.40;;;15.60;59.50;16.40;100905.00;;;;5070313;28;20170;-40
2022/12/05 07:41:37;;;;;;;6.20;5.60;;;15.60;59.20;16.40;100922.00;;;;5052029;28;20552;-42
2022/12/05 07:44:02;;;;;;;6.00;5.50;;;15.70;59.20;16.40;100895.00;;;;5068834;28;20165;-42
2022/12/05 07:46:28;;;;;;;6.07;5.57;;;15.70;59.50;16.40;100924.00;;;;5051462;28;20544;-41
2022/12/05 07:48:54;;;;;;;6.03;5.50;;;15.70;59.10;16.40;100934.00;;;;5069383;28;20342;-43
2022/12/05 07:51:20;;;;;;;6.00;5.40;;;15.70;59.10;16.40;100909.00;;;;5051308;28;20517;-40
2022/12/05 07:53:46;;;;;;;6.00;5.40;;;15.70;59.10;16.40;100930.00;;;;5050926;28;20170;-41
2022/12/05 07:56:15;;;;;;;5.70;5.13;;;15.60;59.10;16.40;100926.00;;;;5068709;28;20560;-41
2022/12/05 07:58:42;;;;;;;5.70;5.20;;;15.60;59.10;16.40;100933.00;;;;5069176;28;20185;-41
2022/12/05 08:01:18;;;;;;;5.77;5.27;;;15.60;59.20;16.40;100937.00;;;;5069328;28;20162;-42
2022/12/05 08:03:44;;;;;;;5.47;5.07;;;15.60;59.20;16.40;100938.00;;;;5071195;28;20154;-41
2022/12/05 08:06:13;;;;;;;5.97;5.47;;;15.60;59.20;16.40;100951.00;;;;5069294;28;20158;-41
2022/12/05 08:08:38;;;;;;;5.93;5.50;;;15.60;59.30;16.40;100940.00;;;;5059728;28;20235;-41
2022/12/05 08:11:10;;;;;;;5.90;5.40;;;15.60;59.30;16.40;100945.00;;;;5085582;28;20169;-40
2022/12/05 08:13:35;;;;;;;5.90;5.40;;;15.60;59.20;16.40;100939.00;;;;5069425;28;20204;-41
2022/12/05 08:16:09;;;;;;;5.90;5.40;;;15.70;59.20;16.40;100944.00;;;;5053550;28;20263;-41
2022/12/05 08:18:35;;;;;;;5.20;4.80;;;15.70;59.20;16.40;100958.00;;;;5051240;28;20197;-41
2022/12/05 08:21:12;;;;;;;5.60;5.10;;;15.70;59.10;16.40;100959.00;;;;5069281;28;20173;-42
2022/12/05 08:23:39;;;;;;;5.73;5.13;;;15.70;59.10;16.40;100950.00;;;;5053043;28;20215;-41
2022/12/05 08:26:23;;;;;;;5.43;5.03;;;15.70;59.20;16.40;100944.00;;;;5069044;28;20173;-41
2022/12/05 08:29:00;;;;;;;5.70;5.20;;;15.70;59.20;16.40;100957.00;;;;5051475;28;20684;-42
2022/12/05 08:31:27;;;;;;;5.80;5.30;;;15.60;59.20;16.40;100952.00;;;;5067441;28;20358;-41
2022/12/05 08:33:55;;;;;;;5.30;4.90;;;15.60;59.90;16.40;100935.00;;;;5068854;28;20242;-42
2022/12/05 08:36:20;;;;;;;5.00;4.60;;;15.60;59.30;16.40;100972.00;;;;5051445;28;20229;-41
2022/12/05 08:38:46;;;;;;;5.70;5.20;;;15.60;59.30;16.40;100964.00;;;;5068903;28;20233;-40
2022/12/05 08:41:14;;;;;;;5.93;5.43;;;15.60;59.20;16.40;100974.00;;;;5068994;28;20237;-41
2022/12/05 08:43:40;;;;;;;5.50;5.07;;;15.70;59.20;16.40;100981.00;;;;5068835;28;20161;-42
2022/12/05 08:46:06;;;;;;;7.90;5.30;;;15.70;59.10;16.40;100987.00;;;;5050080;28;20185;-42
2022/12/05 08:48:32;;;;;;;9.67;5.13;;;15.70;59.30;16.40;100992.00;;;;5048630;28;20190;-42
2022/12/05 08:50:58;;;;;;;6.03;5.50;;;15.70;60.00;16.40;100995.00;;;;5031308;28;20250;-41
2022/12/05 08:53:24;;;;;;;5.97;5.27;;;15.70;59.20;16.40;100993.00;;;;5049319;28;20249;-41
2022/12/05 08:55:50;;;;;;;5.50;4.97;;;15.70;59.40;16.50;101001.00;;;;4958448;28;20656;-41
2022/12/05 08:58:16;;;;;;;5.80;5.00;;;15.70;59.40;16.50;101001.00;;;;5063950;28;20202;-40
2022/12/05 09:00:42;;;;;;;8.27;4.97;;;15.70;59.30;16.50;101001.00;;;;5053799;28;20232;-41
2022/12/05 09:03:10;;;;;;;7.37;4.97;;;15.80;59.30;16.50;100997.00;;;;5049660;28;20517;-41
2022/12/05 09:05:35;;;;;;;7.40;5.30;;;15.90;59.10;16.50;100996.00;;;;5039294;28;20170;-39
2022/12/05 09:08:01;;;;;;;8.13;4.97;;;16.00;59.00;16.60;101006.00;;;;5072185;28;20259;-41
2022/12/05 09:10:27;;;;;;;5.60;5.10;;;16.10;58.80;16.60;100984.00;;;;5072119;28;20268;-41
2022/12/05 09:12:53;;;;;;;5.83;4.90;;;16.30;58.60;16.70;100990.00;;;;5072231;28;20240;-41
2022/12/05 09:15:18;;;;;;;7.87;5.53;;;16.40;58.50;16.80;100994.00;;;;5058163;28;20178;-41
2022/12/05 09:17:44;;;;;;;11.03;5.70;;;16.50;58.50;16.90;101005.00;;;;5071063;28;20336;-41
2022/12/05 09:20:12;;;;;;;7.20;5.10;;;16.60;58.40;17.00;100999.00;;;;5072339;28;20169;-42
2022/12/05 09:22:41;;;;;;;8.33;4.90;;;16.80;58.30;17.10;100991.00;;;;5055030;28;20170;-42
2022/12/05 09:25:08;;;;;;;6.37;4.70;;;16.90;58.10;17.20;100994.00;;;;5072605;28;20161;-41
2022/12/05 09:27:33;;;;;;;8.97;5.33;;;17.00;57.90;17.30;101000.00;;;;5071222;28;20189;-41
2022/12/05 09:29:59;;;;;;;6.30;4.93;;;17.20;57.80;17.40;101007.00;;;;5071430;28;20592;-41
2022/12/05 09:32:25;;;;;;;6.27;4.93;;;17.20;57.70;17.40;101006.00;;;;5071874;28;20647;-41
2022/12/05 09:34:50;;;;;;;6.47;4.87;;;17.20;57.80;17.10;101000.00;;;;5072519;28;20175;-41
2022/12/05 09:37:17;;;;;;;5.70;4.80;;;17.20;57.80;17.50;101001.00;;;;5065301;28;20235;-42
2022/12/05 09:39:46;;;;;;;5.23;4.73;;;17.20;57.80;17.60;101008.00;;;;5052181;28;20163;-41
2022/12/05 09:42:29;;;;;;;5.33;4.83;;;17.20;57.80;17.60;100996.00;;;;5051550;28;20226;-42
2022/12/05 09:44:57;;;;;;;5.30;4.80;;;17.20;57.90;17.60;100979.00;;;;5052085;28;20168;-42
2022/12/05 09:47:55;;;;;;;6.00;5.00;;;17.20;58.00;17.60;100999.00;;;;5050821;28;20192;-41
2022/12/05 09:50:49;;;;;;;5.93;4.87;;;17.20;58.10;17.60;101000.00;;;;5061389;28;20530;-41
2022/12/05 09:53:26;;;;;;;5.80;4.80;;;17.10;58.20;17.60;101002.00;;;;5053426;28;20497;-41
2022/12/05 09:56:08;;;;;;;7.40;5.03;;;17.10;58.50;17.60;101009.00;;;;4983422;28;20181;-41
2022/12/05 09:58:42;;;;;;;5.83;5.23;;;17.00;58.50;17.60;101002.00;;;;5052013;28;20200;-41
2022/12/05 10:01:30;;;;;;;8.50;5.70;;;17.00;58.40;17.60;101003.00;;;;5050606;28;20188;-39
2022/12/05 10:04:11;;;;;;;5.93;5.33;;;17.00;58.20;17.50;101007.00;;;;5052069;28;20535;-42
2022/12/05 10:06:53;;;;;;;6.17;5.57;;;16.90;58.30;17.50;100999.00;;;;5073515;28;20158;-43
2022/12/05 10:09:34;;;;;;;6.47;5.80;;;16.90;57.90;17.50;100999.00;;;;5024469;28;20156;-41
2022/12/05 10:12:21;;;;;;;6.90;5.70;;;16.90;57.80;17.50;101002.00;;;;5065925;28;20162;-42
2022/12/05 10:15:25;;;;;;;6.83;5.50;;;16.80;57.70;17.50;100995.00;;;;5064381;28;20172;-40
2022/12/05 10:18:01;;;;;;;6.17;5.57;;;16.90;58.00;17.50;100992.00;;;;5038836;28;20210;-43
2022/12/05 10:20:35;;;;;;;6.13;5.63;;;16.90;58.00;17.50;100996.00;;;;5040359;28;20172;-40
2022/12/05 10:23:59;;;;;;;7.60;5.33;;;17.00;58.10;17.60;100992.00;;;;5033124;28;20183;-42
2022/12/05 10:26:46;;;;;;;7.00;4.83;;;17.20;58.00;17.70;100990.00;;;;5027383;28;20208;-42
2022/12/05 10:29:34;;;;;;;5.17;4.67;;;17.50;58.20;17.80;100994.00;;;;5048497;28;20164;-42
2022/12/05 10:32:21;;;;;;;8.60;5.27;;;17.60;57.80;17.90;100985.00;;;;5052630;28;20581;-42
2022/12/05 10:34:47;;;;;;;8.00;5.60;;;17.70;57.70;17.90;101000.00;;;;5053362;28;20232;-43
2022/12/05 10:37:20;;;;;;;12.20;5.90;;;17.80;57.70;18.00;101004.00;;;;5053516;28;20818;-42
2022/12/05 10:39:47;;;;;;;6.40;5.10;;;18.00;57.60;18.10;101000.00;;;;5053425;28;20179;-42
2022/12/05 10:42:31;;;;;;;5.83;5.17;;;18.00;57.50;18.20;101006.00;;;;5053368;28;20161;-42
2022/12/05 10:45:03;;;;;;;8.10;5.17;;;18.20;57.40;18.30;101010.00;;;;5053521;28;20206;-42
2022/12/05 10:47:30;;;;;;;6.57;5.10;;;18.20;57.40;18.40;101009.00;;;;5054537;28;20196;-41
2022/12/05 10:49:57;;;;;;;6.43;5.47;;;18.20;57.40;18.40;100998.00;;;;5056597;28;20182;-42
2022/12/05 10:52:23;;;;;;;5.90;4.70;;;18.20;57.40;18.50;100995.00;;;;5057168;28;20180;-41
2022/12/05 10:54:55;;;;;;;5.43;4.93;;;18.20;57.70;18.50;100998.00;;;;5058608;28;20626;-42
2022/12/05 10:57:26;;;;;;;6.60;5.10;;;18.30;57.80;18.60;101016.00;;;;5054039;28;20248;-42
2022/12/05 10:59:51;;;;;;;8.33;5.10;;;18.40;57.70;18.60;101011.00;;;;5070797;28;20158;-42
2022/12/05 11:02:27;;;;;;;5.40;4.90;;;18.40;58.00;18.60;101010.00;;;;5070596;28;20195;-42
2022/12/05 11:04:53;;;;;;;8.73;5.80;;;18.40;58.10;18.70;101006.00;;;;5052994;28;20157;-41
2022/12/05 11:07:47;;;;;;;10.13;6.30;;;18.30;58.60;18.70;100986.00;;;;5052490;28;20280;-41
2022/12/05 11:10:36;;;;;;;9.53;6.30;;;18.30;59.40;18.70;100985.00;;;;5053775;28;20157;-41
2022/12/05 11:13:12;;;;;;;7.03;6.33;;;18.30;59.60;18.70;100999.00;;;;5052453;28;20288;-41
2022/12/05 11:15:38;;;;;;;9.43;6.20;;;18.40;60.30;18.80;100997.00;;;;5054341;28;20210;-41